createdAt,value
2017-05-27T00:00:00.878Z,0
2017-05-27T00:01:01.469Z,0
2017-05-27T00:02:02.043Z,0
2017-05-27T00:03:02.621Z,0
2017-05-27T00:04:03.197Z,0
2017-05-27T00:05:03.773Z,0
2017-05-27T00:06:04.349Z,0
2017-05-27T00:07:04.926Z,0
2017-05-27T00:08:05.503Z,0
2017-05-27T00:09:06.080Z,0
2017-05-27T00:10:06.656Z,0
2017-05-27T00:11:07.233Z,0
2017-05-27T00:12:07.811Z,0
2017-05-27T00:13:08.389Z,0
2017-05-27T00:14:08.966Z,0
2017-05-27T00:15:09.543Z,0
2017-05-27T00:16:10.132Z,0
2017-05-27T00:17:10.712Z,0
2017-05-27T00:18:11.293Z,0
2017-05-27T00:19:11.868Z,0
2017-05-27T00:20:12.444Z,0
2017-05-27T00:21:13.021Z,0
2017-05-27T00:22:13.598Z,0
2017-05-27T00:23:14.175Z,0
2017-05-27T00:24:14.751Z,0
2017-05-27T00:25:15.330Z,0
2017-05-27T00:26:15.905Z,0
2017-05-27T00:27:16.498Z,0
2017-05-27T00:28:17.072Z,0
2017-05-27T00:29:17.649Z,0
2017-05-27T00:30:18.227Z,0
2017-05-27T00:31:18.816Z,0
2017-05-27T00:32:19.393Z,0
2017-05-27T00:33:19.982Z,0
2017-05-27T00:34:20.557Z,0
2017-05-27T00:35:21.133Z,0
2017-05-27T00:36:21.709Z,0
2017-05-27T00:37:22.286Z,0
2017-05-27T00:38:22.860Z,0
2017-05-27T00:39:23.437Z,0
2017-05-27T00:40:24.015Z,0
2017-05-27T00:41:24.592Z,0
2017-05-27T00:42:25.170Z,0
2017-05-27T00:43:25.747Z,0
2017-05-27T00:44:26.326Z,0
2017-05-27T00:45:26.901Z,0
2017-05-27T00:46:27.480Z,0
2017-05-27T00:47:28.055Z,0
2017-05-27T00:48:28.631Z,0
2017-05-27T00:49:29.209Z,0
2017-05-27T00:50:29.784Z,0
2017-05-27T00:51:30.361Z,0
2017-05-27T00:52:30.937Z,0
2017-05-27T00:53:31.513Z,0
2017-05-27T00:54:32.090Z,0
2017-05-27T00:55:32.665Z,0
2017-05-27T00:56:33.241Z,0
2017-05-27T00:57:33.831Z,0
2017-05-27T00:58:34.420Z,0
2017-05-27T00:59:34.997Z,0
2017-05-27T01:00:35.575Z,0
2017-05-27T01:01:36.151Z,0
2017-05-27T01:02:36.729Z,0
2017-05-27T01:03:37.305Z,0
2017-05-27T01:04:37.885Z,0
2017-05-27T01:05:38.460Z,0
2017-05-27T01:06:39.036Z,0
2017-05-27T01:07:39.613Z,0
2017-05-27T01:08:40.190Z,0
2017-05-27T01:09:40.778Z,0
2017-05-27T01:10:41.354Z,0
2017-05-27T01:11:41.932Z,0
2017-05-27T01:12:42.509Z,0
2017-05-27T01:13:43.086Z,0
2017-05-27T01:14:43.662Z,0
2017-05-27T01:15:44.238Z,0
2017-05-27T01:16:44.815Z,0
2017-05-27T01:17:45.391Z,0
2017-05-27T01:18:45.968Z,0
2017-05-27T01:19:46.545Z,0
2017-05-27T01:20:47.122Z,0
2017-05-27T01:21:47.698Z,0
2017-05-27T01:22:48.277Z,0
2017-05-27T01:23:48.854Z,0
2017-05-27T01:24:49.432Z,0
2017-05-27T01:25:50.009Z,0
2017-05-27T01:26:50.586Z,0
2017-05-27T01:27:51.162Z,0
2017-05-27T01:28:51.739Z,0
2017-05-27T01:29:52.319Z,0
2017-05-27T01:30:52.893Z,0
2017-05-27T01:31:53.469Z,0
2017-05-27T01:32:54.045Z,0
2017-05-27T01:33:54.621Z,0
2017-05-27T01:34:55.197Z,0
2017-05-27T01:35:55.773Z,0
2017-05-27T01:36:56.350Z,0
2017-05-27T01:37:56.927Z,0
2017-05-27T01:38:57.507Z,0
2017-05-27T01:39:58.080Z,0
2017-05-27T01:40:58.655Z,0
2017-05-27T01:41:59.232Z,0
2017-05-27T01:42:59.808Z,0
2017-05-27T01:44:00.387Z,0
2017-05-27T01:45:00.966Z,0
2017-05-27T01:46:01.545Z,0
2017-05-27T01:47:02.124Z,0
2017-05-27T01:48:02.712Z,0
2017-05-27T01:49:03.292Z,0
2017-05-27T01:50:03.870Z,0
2017-05-27T01:51:04.447Z,0
2017-05-27T01:52:05.024Z,0
2017-05-27T01:53:05.602Z,0
2017-05-27T01:54:06.179Z,0
2017-05-27T01:55:06.757Z,0
2017-05-27T01:56:07.334Z,0
2017-05-27T01:57:07.911Z,0
2017-05-27T01:58:08.488Z,0
2017-05-27T01:59:09.066Z,0
2017-05-27T02:00:09.647Z,0
2017-05-27T02:01:10.223Z,0
2017-05-27T02:02:10.803Z,0
2017-05-27T02:03:11.393Z,0
2017-05-27T02:04:11.971Z,0
2017-05-27T02:05:12.551Z,0
2017-05-27T02:06:13.129Z,0
2017-05-27T02:07:13.721Z,0
2017-05-27T02:08:14.301Z,0
2017-05-27T02:09:14.879Z,0
2017-05-27T02:10:15.457Z,0
2017-05-27T02:11:16.034Z,0
2017-05-27T02:12:16.612Z,0
2017-05-27T02:13:17.190Z,0
2017-05-27T02:14:17.766Z,0
2017-05-27T02:15:18.344Z,0
2017-05-27T02:16:18.921Z,0
2017-05-27T02:17:19.511Z,0
2017-05-27T02:18:20.088Z,0
2017-05-27T02:19:20.666Z,0
2017-05-27T02:20:21.245Z,0
2017-05-27T02:21:21.822Z,0
2017-05-27T02:22:22.401Z,0
2017-05-27T02:23:22.977Z,0
2017-05-27T02:24:23.556Z,0
2017-05-27T02:25:24.146Z,0
2017-05-27T02:26:24.725Z,0
2017-05-27T02:27:25.320Z,0
2017-05-27T02:28:25.895Z,0
2017-05-27T02:29:26.474Z,0
2017-05-27T02:30:27.054Z,0
2017-05-27T02:31:27.629Z,0
2017-05-27T02:32:28.207Z,0
2017-05-27T02:33:28.784Z,0
2017-05-27T02:34:29.362Z,0
2017-05-27T02:35:29.938Z,0
2017-05-27T02:36:30.516Z,0
2017-05-27T02:37:31.093Z,0
2017-05-27T02:38:31.670Z,0
2017-05-27T02:39:32.250Z,0
2017-05-27T02:40:32.829Z,0
2017-05-27T02:41:33.405Z,0
2017-05-27T02:42:33.984Z,0
2017-05-27T02:43:34.562Z,0
2017-05-27T02:44:35.142Z,0
2017-05-27T02:45:35.720Z,0
2017-05-27T02:46:36.299Z,0
2017-05-27T02:47:36.875Z,0
2017-05-27T02:48:37.454Z,0
2017-05-27T02:49:38.032Z,0
2017-05-27T02:50:38.608Z,0
2017-05-27T02:51:39.199Z,0
2017-05-27T02:52:39.776Z,0
2017-05-27T02:53:40.354Z,4
2017-05-27T02:54:40.931Z,0
2017-05-27T02:55:41.508Z,0
2017-05-27T02:56:42.086Z,0
2017-05-27T02:57:42.663Z,4
2017-05-27T02:58:43.240Z,4
2017-05-27T02:59:43.818Z,0
2017-05-27T03:00:44.397Z,4
2017-05-27T03:01:44.976Z,4
2017-05-27T03:02:45.555Z,0
2017-05-27T03:03:46.134Z,4
2017-05-27T03:04:46.713Z,4
2017-05-27T03:05:47.290Z,4
2017-05-27T03:06:47.870Z,4
2017-05-27T03:07:48.446Z,8
2017-05-27T03:08:49.023Z,4
2017-05-27T03:09:49.600Z,4
2017-05-27T03:10:50.196Z,8
2017-05-27T03:11:50.770Z,8
2017-05-27T03:12:51.346Z,8
2017-05-27T03:13:51.924Z,8
2017-05-27T03:14:52.502Z,12
2017-05-27T03:15:53.079Z,12
2017-05-27T03:16:53.658Z,12
2017-05-27T03:17:54.251Z,12
2017-05-27T03:18:54.828Z,16
2017-05-27T03:19:55.407Z,16
2017-05-27T03:20:55.986Z,20
2017-05-27T03:21:56.567Z,24
2017-05-27T03:22:57.146Z,24
2017-05-27T03:23:57.727Z,24
2017-05-27T03:24:58.305Z,28
2017-05-27T03:25:58.884Z,28
2017-05-27T03:26:59.463Z,32
2017-05-27T03:28:00.042Z,32
2017-05-27T03:29:00.622Z,40
2017-05-27T03:30:01.213Z,40
2017-05-27T03:31:01.806Z,40
2017-05-27T03:32:02.384Z,44
2017-05-27T03:33:02.979Z,48
2017-05-27T03:34:03.554Z,48
2017-05-27T03:35:04.134Z,56
2017-05-27T03:36:04.714Z,56
2017-05-27T03:37:05.291Z,60
2017-05-27T03:38:05.872Z,60
2017-05-27T03:39:06.450Z,64
2017-05-27T03:40:07.031Z,68
2017-05-27T03:41:07.610Z,72
2017-05-27T03:42:08.188Z,76
2017-05-27T03:43:08.767Z,80
2017-05-27T03:44:09.344Z,80
2017-05-27T03:45:09.924Z,84
2017-05-27T03:46:10.503Z,88
2017-05-27T03:47:11.082Z,92
2017-05-27T03:48:11.673Z,96
2017-05-27T03:49:12.254Z,100
2017-05-27T03:50:12.835Z,104
2017-05-27T03:51:13.414Z,104
2017-05-27T03:52:13.995Z,112
2017-05-27T03:53:14.574Z,116
2017-05-27T03:54:15.154Z,120
2017-05-27T03:55:15.735Z,124
2017-05-27T03:56:16.314Z,128
2017-05-27T03:57:16.895Z,132
2017-05-27T03:58:17.474Z,132
2017-05-27T03:59:18.055Z,140
2017-05-27T04:00:18.635Z,144
2017-05-27T04:01:19.213Z,144
2017-05-27T04:02:19.795Z,152
2017-05-27T04:03:20.374Z,152
2017-05-27T04:04:20.953Z,160
2017-05-27T04:05:21.532Z,160
2017-05-27T04:06:22.113Z,164
2017-05-27T04:07:22.694Z,168
2017-05-27T04:08:23.275Z,172
2017-05-27T04:09:23.855Z,176
2017-05-27T04:10:24.433Z,180
2017-05-27T04:11:25.012Z,180
2017-05-27T04:12:25.592Z,184
2017-05-27T04:13:26.175Z,188
2017-05-27T04:14:26.755Z,192
2017-05-27T04:15:27.336Z,200
2017-05-27T04:16:27.930Z,200
2017-05-27T04:17:28.509Z,204
2017-05-27T04:18:29.101Z,208
2017-05-27T04:19:29.681Z,212
2017-05-27T04:20:30.261Z,216
2017-05-27T04:21:30.876Z,220
2017-05-27T04:22:31.423Z,224
2017-05-27T04:23:32.006Z,224
2017-05-27T04:24:32.587Z,232
2017-05-27T04:25:33.169Z,236
2017-05-27T04:26:33.750Z,240
2017-05-27T04:27:34.383Z,240
2017-05-27T04:28:34.912Z,244
2017-05-27T04:29:35.492Z,252
2017-05-27T04:30:36.074Z,256
2017-05-27T04:31:36.658Z,260
2017-05-27T04:32:37.252Z,260
2017-05-27T04:33:37.834Z,268
2017-05-27T04:34:38.415Z,272
2017-05-27T04:35:38.997Z,276
2017-05-27T04:36:39.579Z,284
2017-05-27T04:37:40.162Z,284
2017-05-27T04:38:40.744Z,292
2017-05-27T04:39:41.324Z,292
2017-05-27T04:40:41.906Z,296
2017-05-27T04:41:42.488Z,304
2017-05-27T04:42:43.069Z,304
2017-05-27T04:43:43.650Z,312
2017-05-27T04:44:44.232Z,316
2017-05-27T04:45:44.816Z,320
2017-05-27T04:46:45.398Z,324
2017-05-27T04:47:45.980Z,328
2017-05-27T04:48:46.562Z,340
2017-05-27T04:49:47.143Z,340
2017-05-27T04:50:47.726Z,352
2017-05-27T04:51:48.307Z,356
2017-05-27T04:52:48.888Z,360
2017-05-27T04:53:49.470Z,368
2017-05-27T04:54:50.063Z,372
2017-05-27T04:55:50.646Z,376
2017-05-27T04:56:51.229Z,388
2017-05-27T04:57:51.824Z,388
2017-05-27T04:58:52.405Z,392
2017-05-27T04:59:52.987Z,400
2017-05-27T05:00:53.570Z,404
2017-05-27T05:01:54.152Z,408
2017-05-27T05:02:54.734Z,412
2017-05-27T05:03:55.315Z,416
2017-05-27T05:04:55.897Z,424
2017-05-27T05:05:56.481Z,424
2017-05-27T05:06:57.062Z,428
2017-05-27T05:07:57.643Z,432
2017-05-27T05:08:58.225Z,436
2017-05-27T05:09:58.807Z,444
2017-05-27T05:10:59.391Z,444
2017-05-27T05:11:59.973Z,448
2017-05-27T05:13:00.554Z,452
2017-05-27T05:14:01.142Z,456
2017-05-27T05:15:01.731Z,460
2017-05-27T05:16:02.315Z,464
2017-05-27T05:17:02.897Z,468
2017-05-27T05:18:03.480Z,472
2017-05-27T05:19:04.059Z,472
2017-05-27T05:20:04.643Z,476
2017-05-27T05:21:05.225Z,480
2017-05-27T05:22:05.808Z,484
2017-05-27T05:23:06.390Z,488
2017-05-27T05:24:06.972Z,492
2017-05-27T05:25:07.556Z,492
2017-05-27T05:26:08.137Z,520
2017-05-27T05:27:08.737Z,500
2017-05-27T05:28:09.328Z,500
2017-05-27T05:29:09.912Z,504
2017-05-27T05:30:10.493Z,504
2017-05-27T05:31:11.076Z,508
2017-05-27T05:32:11.660Z,512
2017-05-27T05:33:12.242Z,516
2017-05-27T05:34:12.823Z,520
2017-05-27T05:35:13.422Z,524
2017-05-27T05:36:14.016Z,528
2017-05-27T05:37:14.599Z,528
2017-05-27T05:38:15.183Z,532
2017-05-27T05:39:15.766Z,536
2017-05-27T05:40:16.349Z,540
2017-05-27T05:41:16.929Z,540
2017-05-27T05:42:17.512Z,548
2017-05-27T05:43:18.095Z,548
2017-05-27T05:44:18.678Z,552
2017-05-27T05:45:19.261Z,556
2017-05-27T05:46:19.855Z,556
2017-05-27T05:47:20.450Z,560
2017-05-27T05:48:21.033Z,564
2017-05-27T05:49:21.627Z,564
2017-05-27T05:50:22.209Z,564
2017-05-27T05:51:22.791Z,572
2017-05-27T05:52:23.374Z,572
2017-05-27T05:53:23.957Z,576
2017-05-27T05:54:24.541Z,580
2017-05-27T05:55:25.125Z,580
2017-05-27T05:56:25.705Z,584
2017-05-27T05:57:26.289Z,588
2017-05-27T05:58:26.871Z,592
2017-05-27T05:59:27.454Z,592
2017-05-27T06:00:28.050Z,592
2017-05-27T06:01:28.633Z,596
2017-05-27T06:02:29.214Z,596
2017-05-27T06:03:29.799Z,600
2017-05-27T06:04:30.382Z,604
2017-05-27T06:05:30.965Z,608
2017-05-27T06:06:31.547Z,608
2017-05-27T06:07:32.131Z,612
2017-05-27T06:08:32.715Z,612
2017-05-27T06:09:33.297Z,612
2017-05-27T06:10:33.893Z,616
2017-05-27T06:11:34.476Z,620
2017-05-27T06:12:35.059Z,624
2017-05-27T06:13:35.641Z,624
2017-05-27T06:14:36.226Z,624
2017-05-27T06:15:36.809Z,628
2017-05-27T06:16:37.391Z,632
2017-05-27T06:17:37.973Z,632
2017-05-27T06:18:38.555Z,636
2017-05-27T06:19:39.140Z,636
2017-05-27T06:20:39.722Z,640
2017-05-27T06:21:40.305Z,640
2017-05-27T06:22:40.889Z,644
2017-05-27T06:23:41.471Z,644
2017-05-27T06:24:42.054Z,648
2017-05-27T06:25:42.637Z,648
2017-05-27T06:26:43.221Z,652
2017-05-27T06:27:43.805Z,652
2017-05-27T06:28:44.388Z,656
2017-05-27T06:29:44.970Z,656
2017-05-27T06:30:45.552Z,660
2017-05-27T06:31:46.136Z,660
2017-05-27T06:32:46.730Z,664
2017-05-27T06:33:47.314Z,664
2017-05-27T06:34:47.895Z,664
2017-05-27T06:35:48.478Z,672
2017-05-27T06:36:49.058Z,668
2017-05-27T06:37:49.641Z,672
2017-05-27T06:38:50.223Z,672
2017-05-27T06:39:50.805Z,676
2017-05-27T06:40:51.386Z,676
2017-05-27T06:41:51.970Z,676
2017-05-27T06:42:52.551Z,680
2017-05-27T06:43:53.132Z,680
2017-05-27T06:44:53.714Z,684
2017-05-27T06:45:54.296Z,684
2017-05-27T06:46:54.880Z,684
2017-05-27T06:47:55.460Z,684
2017-05-27T06:48:56.041Z,688
2017-05-27T06:49:56.637Z,688
2017-05-27T06:50:57.215Z,692
2017-05-27T06:51:57.797Z,692
2017-05-27T06:52:58.380Z,692
2017-05-27T06:53:58.960Z,696
2017-05-27T06:54:59.541Z,696
2017-05-27T06:56:00.124Z,696
2017-05-27T06:57:00.705Z,700
2017-05-27T06:58:01.286Z,700
2017-05-27T06:59:01.881Z,700
2017-05-27T07:00:02.461Z,704
2017-05-27T07:01:03.043Z,708
2017-05-27T07:02:03.624Z,708
2017-05-27T07:03:04.207Z,708
2017-05-27T07:04:04.789Z,712
2017-05-27T07:05:05.370Z,716
2017-05-27T07:06:05.952Z,716
2017-05-27T07:07:06.535Z,716
2017-05-27T07:08:07.118Z,716
2017-05-27T07:09:07.698Z,720
2017-05-27T07:10:08.293Z,720
2017-05-27T07:11:08.875Z,724
2017-05-27T07:12:09.456Z,724
2017-05-27T07:13:10.038Z,724
2017-05-27T07:14:10.620Z,724
2017-05-27T07:15:11.202Z,728
2017-05-27T07:16:11.784Z,732
2017-05-27T07:17:12.365Z,732
2017-05-27T07:18:12.948Z,732
2017-05-27T07:19:13.530Z,732
2017-05-27T07:20:14.112Z,732
2017-05-27T07:21:14.693Z,736
2017-05-27T07:22:15.276Z,736
2017-05-27T07:23:15.859Z,736
2017-05-27T07:24:16.442Z,740
2017-05-27T07:25:17.022Z,740
2017-05-27T07:26:17.605Z,744
2017-05-27T07:27:18.185Z,744
2017-05-27T07:28:18.767Z,748
2017-05-27T07:29:19.351Z,748
2017-05-27T07:30:19.930Z,748
2017-05-27T07:31:20.519Z,752
2017-05-27T07:32:21.109Z,752
2017-05-27T07:33:21.691Z,752
2017-05-27T07:34:22.275Z,740
2017-05-27T07:35:22.855Z,744
2017-05-27T07:36:23.450Z,740
2017-05-27T07:37:24.031Z,740
2017-05-27T07:38:24.611Z,744
2017-05-27T07:39:25.199Z,748
2017-05-27T07:40:25.778Z,748
2017-05-27T07:41:26.359Z,748
2017-05-27T07:42:26.941Z,748
2017-05-27T07:43:27.526Z,752
2017-05-27T07:44:28.108Z,768
2017-05-27T07:45:28.690Z,768
2017-05-27T07:46:29.271Z,768
2017-05-27T07:47:29.854Z,772
2017-05-27T07:48:30.439Z,772
2017-05-27T07:49:31.019Z,772
2017-05-27T07:50:31.605Z,776
2017-05-27T07:51:32.184Z,776
2017-05-27T07:52:32.767Z,780
2017-05-27T07:53:33.350Z,776
2017-05-27T07:54:33.933Z,780
2017-05-27T07:55:34.513Z,784
2017-05-27T07:56:35.097Z,784
2017-05-27T07:57:35.679Z,788
2017-05-27T07:58:36.262Z,788
2017-05-27T07:59:36.843Z,788
2017-05-27T08:00:37.427Z,788
2017-05-27T08:01:38.009Z,788
2017-05-27T08:02:38.594Z,788
2017-05-27T08:03:39.173Z,792
2017-05-27T08:04:39.768Z,796
2017-05-27T08:05:40.349Z,796
2017-05-27T08:06:40.932Z,796
2017-05-27T08:07:41.515Z,796
2017-05-27T08:08:42.097Z,800
2017-05-27T08:09:42.678Z,800
2017-05-27T08:10:43.262Z,800
2017-05-27T08:11:43.857Z,804
2017-05-27T08:12:44.445Z,800
2017-05-27T08:13:45.026Z,808
2017-05-27T08:14:45.608Z,808
2017-05-27T08:15:46.208Z,808
2017-05-27T08:16:46.787Z,812
2017-05-27T08:17:47.370Z,812
2017-05-27T08:18:47.953Z,812
2017-05-27T08:19:48.537Z,816
2017-05-27T08:20:49.118Z,816
2017-05-27T08:21:49.700Z,820
2017-05-27T08:22:50.283Z,816
2017-05-27T08:23:50.866Z,816
2017-05-27T08:24:51.450Z,816
2017-05-27T08:25:52.031Z,824
2017-05-27T08:26:52.614Z,824
2017-05-27T08:27:53.197Z,824
2017-05-27T08:28:53.780Z,828
2017-05-27T08:29:54.363Z,824
2017-05-27T08:30:54.946Z,832
2017-05-27T08:31:55.529Z,828
2017-05-27T08:32:56.114Z,828
2017-05-27T08:33:56.696Z,832
2017-05-27T08:34:57.279Z,832
2017-05-27T08:35:57.861Z,836
2017-05-27T08:36:58.444Z,840
2017-05-27T08:37:59.029Z,836
2017-05-27T08:38:59.610Z,840
2017-05-27T08:40:00.243Z,840
2017-05-27T08:41:00.827Z,844
2017-05-27T08:42:01.410Z,844
2017-05-27T08:43:01.992Z,844
2017-05-27T08:44:02.578Z,848
2017-05-27T08:45:03.161Z,848
2017-05-27T08:46:03.746Z,852
2017-05-27T08:47:04.329Z,852
2017-05-27T08:48:04.911Z,856
2017-05-27T08:49:05.495Z,860
2017-05-27T08:50:06.106Z,860
2017-05-27T08:51:06.661Z,864
2017-05-27T08:52:07.244Z,864
2017-05-27T08:53:07.842Z,860
2017-05-27T08:54:08.425Z,860
2017-05-27T08:55:09.013Z,864
2017-05-27T08:56:09.593Z,868
2017-05-27T08:57:10.176Z,868
2017-05-27T08:58:10.758Z,864
2017-05-27T08:59:11.341Z,864
2017-05-27T09:00:11.926Z,868
2017-05-27T09:01:12.510Z,868
2017-05-27T09:02:13.149Z,872
2017-05-27T09:03:13.678Z,872
2017-05-27T09:04:14.263Z,868
2017-05-27T09:05:14.846Z,868
2017-05-27T09:06:15.428Z,872
2017-05-27T09:07:16.012Z,872
2017-05-27T09:08:16.624Z,876
2017-05-27T09:09:17.218Z,876
2017-05-27T09:10:17.803Z,876
2017-05-27T09:11:18.384Z,876
2017-05-27T09:12:18.967Z,876
2017-05-27T09:13:19.553Z,876
2017-05-27T09:14:20.135Z,880
2017-05-27T09:15:20.721Z,876
2017-05-27T09:16:21.305Z,876
2017-05-27T09:17:21.889Z,876
2017-05-27T09:18:22.475Z,880
2017-05-27T09:19:23.060Z,880
2017-05-27T09:20:23.643Z,880
2017-05-27T09:21:24.227Z,876
2017-05-27T09:22:24.810Z,880
2017-05-27T09:23:25.396Z,880
2017-05-27T09:24:25.992Z,880
2017-05-27T09:25:26.576Z,884
2017-05-27T09:26:27.160Z,880
2017-05-27T09:27:27.745Z,884
2017-05-27T09:28:28.330Z,884
2017-05-27T09:29:28.914Z,884
2017-05-27T09:30:29.498Z,884
2017-05-27T09:31:30.082Z,884
2017-05-27T09:32:30.671Z,880
2017-05-27T09:33:31.251Z,888
2017-05-27T09:34:31.834Z,884
2017-05-27T09:35:32.417Z,884
2017-05-27T09:36:33.001Z,884
2017-05-27T09:37:33.586Z,888
2017-05-27T09:38:34.170Z,888
2017-05-27T09:39:34.753Z,888
2017-05-27T09:40:35.337Z,884
2017-05-27T09:41:35.924Z,892
2017-05-27T09:42:36.510Z,896
2017-05-27T09:43:37.095Z,892
2017-05-27T09:44:37.693Z,896
2017-05-27T09:45:38.278Z,892
2017-05-27T09:46:38.865Z,896
2017-05-27T09:47:39.447Z,896
2017-05-27T09:48:40.033Z,896
2017-05-27T09:49:40.630Z,888
2017-05-27T09:50:41.226Z,892
2017-05-27T09:51:41.811Z,892
2017-05-27T09:52:42.395Z,896
2017-05-27T09:53:42.978Z,904
2017-05-27T09:54:43.563Z,896
2017-05-27T09:55:44.151Z,904
2017-05-27T09:56:44.737Z,904
2017-05-27T09:57:45.318Z,908
2017-05-27T09:58:45.904Z,908
2017-05-27T09:59:46.490Z,932
2017-05-27T10:00:47.073Z,904
2017-05-27T10:01:47.657Z,908
2017-05-27T10:02:48.243Z,908
2017-05-27T10:03:48.828Z,908
2017-05-27T10:04:49.411Z,912
2017-05-27T10:05:50.005Z,908
2017-05-27T10:06:50.581Z,908
2017-05-27T10:07:51.166Z,908
2017-05-27T10:08:51.802Z,912
2017-05-27T10:09:52.347Z,920
2017-05-27T10:10:52.932Z,912
2017-05-27T10:11:53.518Z,912
2017-05-27T10:12:54.115Z,908
2017-05-27T10:13:54.700Z,912
2017-05-27T10:14:55.284Z,920
2017-05-27T10:15:55.882Z,920
2017-05-27T10:16:56.465Z,920
2017-05-27T10:17:57.050Z,920
2017-05-27T10:18:57.636Z,920
2017-05-27T10:19:58.221Z,920
2017-05-27T10:20:58.805Z,920
2017-05-27T10:21:59.396Z,920
2017-05-27T10:22:59.976Z,912
2017-05-27T10:24:00.560Z,920
2017-05-27T10:25:01.144Z,924
2017-05-27T10:26:01.729Z,928
2017-05-27T10:27:02.315Z,920
2017-05-27T10:28:02.899Z,920
2017-05-27T10:29:03.489Z,928
2017-05-27T10:30:04.069Z,932
2017-05-27T10:31:04.655Z,936
2017-05-27T10:32:05.240Z,936
2017-05-27T10:33:05.881Z,928
2017-05-27T10:34:06.466Z,932
2017-05-27T10:35:07.051Z,924
2017-05-27T10:36:07.637Z,924
2017-05-27T10:37:08.233Z,920
2017-05-27T10:38:08.818Z,936
2017-05-27T10:39:09.405Z,940
2017-05-27T10:40:10.003Z,936
2017-05-27T10:41:10.589Z,940
2017-05-27T10:42:11.174Z,936
2017-05-27T10:43:11.759Z,944
2017-05-27T10:44:12.347Z,940
2017-05-27T10:45:12.932Z,944
2017-05-27T10:46:13.516Z,948
2017-05-27T10:47:14.102Z,944
2017-05-27T10:48:14.701Z,948
2017-05-27T10:49:15.299Z,952
2017-05-27T10:50:15.884Z,952
2017-05-27T10:51:16.469Z,956
2017-05-27T10:52:17.056Z,948
2017-05-27T10:53:17.652Z,956
2017-05-27T10:54:18.238Z,960
2017-05-27T10:55:18.825Z,956
2017-05-27T10:56:19.409Z,956
2017-05-27T10:57:19.995Z,960
2017-05-27T10:58:20.581Z,960
2017-05-27T10:59:21.167Z,960
2017-05-27T11:00:21.765Z,960
2017-05-27T11:01:22.350Z,964
2017-05-27T11:02:22.934Z,972
2017-05-27T11:03:23.519Z,972
2017-05-27T11:04:24.106Z,972
2017-05-27T11:05:24.691Z,968
2017-05-27T11:06:25.277Z,972
2017-05-27T11:07:25.861Z,964
2017-05-27T11:08:26.447Z,968
2017-05-27T11:09:27.046Z,980
2017-05-27T11:10:27.634Z,980
2017-05-27T11:11:28.217Z,980
2017-05-27T11:12:28.804Z,984
2017-05-27T11:13:29.389Z,980
2017-05-27T11:14:29.974Z,980
2017-05-27T11:15:30.561Z,980
2017-05-27T11:16:31.146Z,984
2017-05-27T11:17:31.731Z,988
2017-05-27T11:18:32.317Z,988
2017-05-27T11:19:32.915Z,992
2017-05-27T11:20:33.500Z,996
2017-05-27T11:21:34.089Z,1000
2017-05-27T11:22:34.675Z,996
2017-05-27T11:23:35.259Z,992
2017-05-27T11:24:35.846Z,996
2017-05-27T11:25:36.431Z,992
2017-05-27T11:26:37.020Z,1000
2017-05-27T11:27:37.619Z,1004
2017-05-27T11:28:38.206Z,1008
2017-05-27T11:29:38.793Z,1004
2017-05-27T11:30:39.392Z,1012
2017-05-27T11:31:39.991Z,1016
2017-05-27T11:32:40.579Z,1012
2017-05-27T11:33:41.165Z,1016
2017-05-27T11:34:41.752Z,1020
2017-05-27T11:35:42.337Z,1020
2017-05-27T11:36:42.937Z,1020
2017-05-27T11:37:43.523Z,1016
2017-05-27T11:38:44.112Z,1020
2017-05-27T11:39:44.698Z,1028
2017-05-27T11:40:45.284Z,1032
2017-05-27T11:41:45.873Z,1024
2017-05-27T11:42:46.457Z,1028
2017-05-27T11:43:47.043Z,1032
2017-05-27T11:44:47.629Z,1032
2017-05-27T11:45:48.216Z,1040
2017-05-27T11:46:48.804Z,1036
2017-05-27T11:47:49.390Z,1040
2017-05-27T11:48:49.978Z,1044
2017-05-27T11:49:50.566Z,1044
2017-05-27T11:50:51.153Z,1052
2017-05-27T11:51:51.739Z,1044
2017-05-27T11:52:52.337Z,1040
2017-05-27T11:53:52.926Z,1044
2017-05-27T11:54:53.513Z,1080
2017-05-27T11:55:54.098Z,1084
2017-05-27T11:56:54.685Z,1068
2017-05-27T11:57:55.272Z,1060
2017-05-27T11:58:55.860Z,1056
2017-05-27T11:59:56.446Z,1060
2017-05-27T12:00:57.034Z,1060
2017-05-27T12:01:57.621Z,1064
2017-05-27T12:02:58.208Z,1068
2017-05-27T12:03:58.792Z,1068
2017-05-27T12:04:59.381Z,1072
2017-05-27T12:05:59.968Z,1076
2017-05-27T12:07:00.567Z,1076
2017-05-27T12:08:01.156Z,1080
2017-05-27T12:09:01.744Z,1084
2017-05-27T12:10:02.332Z,1088
2017-05-27T12:11:02.921Z,1088
2017-05-27T12:12:03.508Z,1092
2017-05-27T12:13:04.096Z,1096
2017-05-27T12:14:04.689Z,1092
2017-05-27T12:15:05.273Z,1096
2017-05-27T12:16:05.858Z,1104
2017-05-27T12:17:06.447Z,1112
2017-05-27T12:18:07.032Z,1112
2017-05-27T12:19:07.618Z,1112
2017-05-27T12:20:08.207Z,1116
2017-05-27T12:21:08.794Z,1116
2017-05-27T12:22:09.379Z,1120
2017-05-27T12:23:09.966Z,1124
2017-05-27T12:24:10.553Z,1120
2017-05-27T12:25:11.143Z,1124
2017-05-27T12:26:11.729Z,1128
2017-05-27T12:27:12.330Z,1128
2017-05-27T12:28:12.917Z,1132
2017-05-27T12:29:13.506Z,1136
2017-05-27T12:30:14.093Z,1136
2017-05-27T12:31:14.678Z,1144
2017-05-27T12:32:15.267Z,1144
2017-05-27T12:33:15.852Z,1152
2017-05-27T12:34:16.440Z,1152
2017-05-27T12:35:17.032Z,1152
2017-05-27T12:36:17.616Z,1160
2017-05-27T12:37:18.204Z,1160
2017-05-27T12:38:18.790Z,1164
2017-05-27T12:39:19.378Z,1172
2017-05-27T12:40:19.966Z,1172
2017-05-27T12:41:20.553Z,1180
2017-05-27T12:42:21.142Z,1180
2017-05-27T12:43:21.730Z,1180
2017-05-27T12:44:22.317Z,1180
2017-05-27T12:45:22.902Z,1188
2017-05-27T12:46:23.491Z,1192
2017-05-27T12:47:24.089Z,1192
2017-05-27T12:48:24.678Z,1200
2017-05-27T12:49:25.265Z,1204
2017-05-27T12:50:25.852Z,1212
2017-05-27T12:51:26.439Z,1208
2017-05-27T12:52:27.029Z,1216
2017-05-27T12:53:27.621Z,1216
2017-05-27T12:54:28.202Z,1224
2017-05-27T12:55:28.790Z,1232
2017-05-27T12:56:29.390Z,1236
2017-05-27T12:57:29.977Z,1236
2017-05-27T12:58:30.567Z,1240
2017-05-27T12:59:31.152Z,1240
2017-05-27T13:00:31.751Z,1244
2017-05-27T13:01:32.340Z,1248
2017-05-27T13:02:32.938Z,1248
2017-05-27T13:03:33.527Z,1216
2017-05-27T13:04:34.114Z,1260
2017-05-27T13:05:34.702Z,1264
2017-05-27T13:06:35.289Z,1264
2017-05-27T13:07:35.876Z,1268
2017-05-27T13:08:36.464Z,1272
2017-05-27T13:09:37.050Z,1284
2017-05-27T13:10:37.642Z,1284
2017-05-27T13:11:38.226Z,1292
2017-05-27T13:12:38.812Z,1292
2017-05-27T13:13:39.399Z,1296
2017-05-27T13:14:39.999Z,1304
2017-05-27T13:15:40.591Z,1304
2017-05-27T13:16:41.177Z,1308
2017-05-27T13:17:41.763Z,1312
2017-05-27T13:18:42.350Z,1316
2017-05-27T13:19:42.939Z,1320
2017-05-27T13:20:43.528Z,1324
2017-05-27T13:21:44.127Z,1328
2017-05-27T13:22:44.713Z,1324
2017-05-27T13:23:45.300Z,1328
2017-05-27T13:24:45.890Z,1336
2017-05-27T13:25:46.477Z,1344
2017-05-27T13:26:47.067Z,1336
2017-05-27T13:27:47.651Z,1356
2017-05-27T13:28:48.239Z,1360
2017-05-27T13:29:48.827Z,1360
2017-05-27T13:30:49.414Z,1368
2017-05-27T13:31:50.002Z,1376
2017-05-27T13:32:50.591Z,1380
2017-05-27T13:33:51.177Z,1388
2017-05-27T13:34:51.763Z,1388
2017-05-27T13:35:52.352Z,1388
2017-05-27T13:36:52.939Z,1392
2017-05-27T13:37:53.526Z,1396
2017-05-27T13:38:54.113Z,1404
2017-05-27T13:39:54.702Z,1404
2017-05-27T13:40:55.292Z,1408
2017-05-27T13:41:55.878Z,1408
2017-05-27T13:42:56.465Z,1412
2017-05-27T13:43:57.055Z,1416
2017-05-27T13:44:57.643Z,1428
2017-05-27T13:45:58.229Z,1440
2017-05-27T13:46:58.818Z,1444
2017-05-27T13:47:59.406Z,1440
2017-05-27T13:49:00.006Z,1440
2017-05-27T13:50:00.595Z,1452
2017-05-27T13:51:01.181Z,1452
2017-05-27T13:52:01.770Z,1460
2017-05-27T13:53:02.359Z,1464
2017-05-27T13:54:02.945Z,1468
2017-05-27T13:55:03.533Z,1472
2017-05-27T13:56:04.122Z,1476
2017-05-27T13:57:04.715Z,1476
2017-05-27T13:58:05.298Z,1488
2017-05-27T13:59:05.898Z,1488
2017-05-27T14:00:06.486Z,1492
2017-05-27T14:01:07.074Z,1500
2017-05-27T14:02:07.663Z,1500
2017-05-27T14:22:00.134Z,1640